createdAt,value
2022-10-16T00:03:26.588Z,14.9
2022-10-16T00:08:28.929Z,14.9
2022-10-16T00:13:35.156Z,14.9
2022-10-16T00:18:41.357Z,14.9
2022-10-16T00:23:47.576Z,14.9
2022-10-16T00:28:53.870Z,15.0
2022-10-16T00:34:00.012Z,14.9
2022-10-16T00:39:06.225Z,15.0
2022-10-16T00:44:12.440Z,15.0
2022-10-16T00:49:18.653Z,15.0
2022-10-16T00:54:24.887Z,14.9
2022-10-16T00:59:31.079Z,15.0
2022-10-16T01:04:37.297Z,14.9
2022-10-16T01:09:43.508Z,14.9
2022-10-16T01:14:49.732Z,14.9
2022-10-16T01:19:55.938Z,14.9
2022-10-16T01:25:02.177Z,15.0
2022-10-16T01:30:07.413Z,15.0
2022-10-16T01:35:13.627Z,15.0
2022-10-16T01:40:19.843Z,15.0
2022-10-16T01:45:25.075Z,15.0
2022-10-16T01:50:31.287Z,15.0
2022-10-16T01:55:37.508Z,15.0
2022-10-16T02:00:43.829Z,15.0
2022-10-16T02:05:49.936Z,15.1
2022-10-16T02:10:56.183Z,15.1
2022-10-16T02:16:02.361Z,15.2
2022-10-16T02:21:08.576Z,15.2
2022-10-16T02:26:14.777Z,15.2
2022-10-16T02:31:21.004Z,15.3
2022-10-16T02:36:27.211Z,15.3
2022-10-16T02:41:33.418Z,15.3
2022-10-16T02:46:39.650Z,15.3
2022-10-16T02:51:45.850Z,15.3
2022-10-16T02:56:52.062Z,15.3
2022-10-16T03:01:58.284Z,15.3
2022-10-16T03:07:04.501Z,15.2
2022-10-16T03:12:10.709Z,15.2
2022-10-16T03:17:16.927Z,15.1
2022-10-16T03:22:23.146Z,15.1
2022-10-16T03:27:29.554Z,15.0
2022-10-16T03:37:40.817Z,15.0
2022-10-16T03:42:46.056Z,15.0
2022-10-16T03:47:52.271Z,14.9
2022-10-16T03:52:58.493Z,14.9
2022-10-16T03:58:04.709Z,14.9
2022-10-16T04:03:10.902Z,14.9
2022-10-16T04:08:17.121Z,14.9
2022-10-16T04:13:23.344Z,14.8
2022-10-16T04:18:29.549Z,14.8
2022-10-16T04:23:35.756Z,14.8
2022-10-16T04:28:42.022Z,14.8
2022-10-16T04:33:48.180Z,14.8
2022-10-16T04:38:54.394Z,14.8
2022-10-16T04:44:00.849Z,14.8
2022-10-16T04:49:06.825Z,14.8
2022-10-16T04:54:13.045Z,14.8
2022-10-16T04:59:19.256Z,14.8
2022-10-16T05:04:25.476Z,14.8
2022-10-16T05:09:31.687Z,14.8
2022-10-16T05:14:37.903Z,14.8
2022-10-16T05:19:44.107Z,14.8
2022-10-16T05:24:50.318Z,14.8
2022-10-16T05:29:55.560Z,14.8
2022-10-16T05:35:01.776Z,14.8
2022-10-16T05:40:07.057Z,14.8
2022-10-16T05:45:13.271Z,14.7
2022-10-16T05:50:19.441Z,14.7
2022-10-16T05:55:25.646Z,14.7
2022-10-16T06:00:31.858Z,14.7
2022-10-16T06:05:38.081Z,14.7
2022-10-16T06:10:44.282Z,14.7
2022-10-16T06:15:50.502Z,14.7
2022-10-16T06:20:56.712Z,14.7
2022-10-16T06:26:02.923Z,14.7
2022-10-16T06:31:09.135Z,14.6
2022-10-16T06:36:15.357Z,14.7
2022-10-16T06:41:21.570Z,14.6
2022-10-16T06:46:27.770Z,14.6
2022-10-16T06:51:35.093Z,14.6
2022-10-16T06:56:40.197Z,14.6
2022-10-16T07:01:46.408Z,14.6
2022-10-16T07:06:52.621Z,14.7
2022-10-16T07:11:58.831Z,14.7
2022-10-16T07:17:05.045Z,14.8
2022-10-16T07:22:11.264Z,14.9
2022-10-16T07:27:16.493Z,15.0
2022-10-16T07:32:22.719Z,15.0
2022-10-16T07:37:29.273Z,15.1
2022-10-16T07:42:35.138Z,15.2
2022-10-16T07:47:41.355Z,15.3
2022-10-16T07:52:47.564Z,15.4
2022-10-16T07:57:53.787Z,15.5
2022-10-16T08:02:59.981Z,15.6
2022-10-16T08:08:06.201Z,15.7
2022-10-16T08:18:18.617Z,15.9
2022-10-16T08:23:24.822Z,16.0
2022-10-16T08:28:31.090Z,16.1
2022-10-16T08:33:37.244Z,16.3
2022-10-16T08:38:43.450Z,16.4
2022-10-16T08:43:49.656Z,16.5
2022-10-16T08:48:55.871Z,16.7
2022-10-16T08:54:01.122Z,16.8
2022-10-16T08:59:07.299Z,16.9
2022-10-16T09:04:13.510Z,17.1
2022-10-16T09:09:19.717Z,17.3
2022-10-16T09:14:25.926Z,17.4
2022-10-16T09:19:31.162Z,17.6
2022-10-16T09:24:37.366Z,17.8
2022-10-16T09:29:42.617Z,18.0
2022-10-16T09:34:48.810Z,18.1
2022-10-16T09:39:55.032Z,18.2
2022-10-16T09:45:01.227Z,18.3
2022-10-16T09:50:07.461Z,18.4
2022-10-16T09:55:13.651Z,18.5
2022-10-16T10:00:19.870Z,18.6
2022-10-16T10:05:26.065Z,18.8
2022-10-16T10:10:32.275Z,19.0
2022-10-16T10:15:38.485Z,19.1
2022-10-16T10:20:44.687Z,19.3
2022-10-16T10:25:50.895Z,19.4
2022-10-16T10:30:57.115Z,19.4
2022-10-16T10:36:03.311Z,19.5
2022-10-16T10:41:09.534Z,19.6
2022-10-16T10:46:15.744Z,19.7
2022-10-16T10:51:21.946Z,19.7
2022-10-16T10:56:28.151Z,19.7
2022-10-16T11:01:34.452Z,19.7
2022-10-16T11:06:40.654Z,19.8
2022-10-16T11:11:46.777Z,19.9
2022-10-16T11:16:52.013Z,20.0
2022-10-16T11:27:04.432Z,20.2
2022-10-16T11:32:09.664Z,20.4
2022-10-16T11:37:15.881Z,20.5
2022-10-16T11:42:22.083Z,20.6
2022-10-16T11:47:54.013Z,20.6
2022-10-16T11:52:34.504Z,20.5
2022-10-16T11:57:40.712Z,20.4
2022-10-16T12:02:46.920Z,20.3
2022-10-16T12:07:53.135Z,20.2
2022-10-16T12:12:59.339Z,20.2
2022-10-16T12:18:05.545Z,20.1
2022-10-16T12:23:11.757Z,20.1
2022-10-16T12:28:17.960Z,20.1
2022-10-16T12:33:24.173Z,20.2
2022-10-16T12:38:30.385Z,20.2
2022-10-16T12:43:36.834Z,20.2
2022-10-16T12:48:49.381Z,20.2
2022-10-16T12:53:49.000Z,20.4
2022-10-16T12:58:55.218Z,20.5
2022-10-16T13:04:01.421Z,20.5
2022-10-16T13:14:13.841Z,20.8
2022-10-16T13:19:20.044Z,21.0
2022-10-16T13:24:25.282Z,21.0
2022-10-16T13:29:31.494Z,21.1
2022-10-16T13:39:43.909Z,21.0
2022-10-16T13:44:50.115Z,21.0
2022-10-16T13:49:56.323Z,20.9
2022-10-16T13:55:02.744Z,20.9
2022-10-16T14:00:08.755Z,20.9
2022-10-16T14:05:14.951Z,20.8
2022-10-16T14:10:21.161Z,20.8
2022-10-16T14:15:27.360Z,20.8
2022-10-16T14:20:33.570Z,20.8
2022-10-16T14:25:39.785Z,20.8
2022-10-16T14:30:45.997Z,20.8
2022-10-16T14:35:52.196Z,20.8
2022-10-16T14:40:58.409Z,20.8
2022-10-16T14:46:04.616Z,20.8
2022-10-16T14:51:10.832Z,20.7
2022-10-16T14:56:17.034Z,20.7
2022-10-16T15:01:23.239Z,20.7
2022-10-16T15:06:29.453Z,20.6
2022-10-16T15:11:35.675Z,20.6
2022-10-16T15:16:40.896Z,20.6
2022-10-16T15:21:47.111Z,20.6
2022-10-16T15:26:52.342Z,20.6
2022-10-16T15:31:58.562Z,20.6
2022-10-16T15:37:03.794Z,20.5
2022-10-16T15:42:09.994Z,20.4
2022-10-16T15:47:16.207Z,20.3
2022-10-16T15:52:22.426Z,20.3
2022-10-16T15:57:28.616Z,20.2
2022-10-16T16:02:34.831Z,20.1
2022-10-16T16:07:41.038Z,20.0
2022-10-16T16:12:47.247Z,20.0
2022-10-16T16:17:53.551Z,19.9
2022-10-16T16:22:59.664Z,19.8
2022-10-16T16:28:05.878Z,19.7
2022-10-16T16:33:12.084Z,19.6
2022-10-16T16:38:18.286Z,19.5
2022-10-16T16:43:24.517Z,19.3
2022-10-16T16:48:30.709Z,19.2
2022-10-16T16:53:37.017Z,19.2
2022-10-16T16:58:43.127Z,19.0
2022-10-16T17:03:49.339Z,18.9
2022-10-16T17:08:55.536Z,18.9
2022-10-16T17:14:01.748Z,18.7
2022-10-16T17:19:07.952Z,18.6
2022-10-16T17:24:13.189Z,18.6
2022-10-16T17:29:19.400Z,18.5
2022-10-16T17:34:25.605Z,18.4
2022-10-16T17:39:31.815Z,18.4
2022-10-16T17:44:38.017Z,18.3
2022-10-16T17:49:44.309Z,18.2
2022-10-16T17:54:50.442Z,18.2
2022-10-16T17:59:56.656Z,18.1
2022-10-16T18:05:02.865Z,18.1
2022-10-16T18:10:11.954Z,18.0
2022-10-16T18:15:15.277Z,18.0
2022-10-16T18:20:21.486Z,18.0
2022-10-16T18:25:27.693Z,17.9
2022-10-16T18:30:33.900Z,17.9
2022-10-16T18:35:40.103Z,17.9
2022-10-16T18:40:46.319Z,17.8
2022-10-16T18:45:52.532Z,17.8
2022-10-16T18:50:58.731Z,17.7
2022-10-16T18:56:04.947Z,17.7
2022-10-16T19:01:11.193Z,17.7
2022-10-16T19:06:17.351Z,17.6
2022-10-16T19:11:23.568Z,17.6
2022-10-16T19:16:28.800Z,17.6
2022-10-16T19:21:35.007Z,17.5
2022-10-16T19:26:42.104Z,17.5
2022-10-16T19:31:46.481Z,17.4
2022-10-16T19:36:52.664Z,17.3
2022-10-16T19:41:58.876Z,17.3
2022-10-16T19:47:05.081Z,17.2
2022-10-16T19:52:11.288Z,17.2
2022-10-16T19:57:17.715Z,17.2
2022-10-16T20:02:23.704Z,17.2
2022-10-16T20:07:32.567Z,17.1
2022-10-16T20:12:36.125Z,17.1
2022-10-16T20:17:42.345Z,17.1
2022-10-16T20:22:48.541Z,17.0
2022-10-16T20:27:54.756Z,17.0
2022-10-16T20:33:00.954Z,17.0
2022-10-16T20:38:07.163Z,17.0
2022-10-16T20:43:13.370Z,17.0
2022-10-16T20:48:19.578Z,16.9
2022-10-16T20:53:25.787Z,16.9
2022-10-16T20:58:31.994Z,16.9
2022-10-16T21:03:38.211Z,16.9
2022-10-16T21:08:44.406Z,16.9
2022-10-16T21:13:49.647Z,16.8
2022-10-16T21:18:55.867Z,16.8
2022-10-16T21:24:02.081Z,16.7
2022-10-16T21:29:07.450Z,16.7
2022-10-16T21:34:13.520Z,16.7
2022-10-16T21:39:19.733Z,16.6
2022-10-16T21:44:25.932Z,16.5
2022-10-16T21:49:32.148Z,16.5
2022-10-16T21:54:38.352Z,16.4
2022-10-16T21:59:44.559Z,16.4
2022-10-16T22:04:50.770Z,16.3
2022-10-16T22:09:56.971Z,16.3
2022-10-16T22:15:03.197Z,16.2
2022-10-16T22:20:09.396Z,16.2
2022-10-16T22:25:15.605Z,16.2
2022-10-16T22:30:21.818Z,16.1
2022-10-16T22:35:28.029Z,16.1
2022-10-16T22:40:34.241Z,16.0
2022-10-16T22:45:40.453Z,15.9
2022-10-16T22:50:46.675Z,15.9
2022-10-16T22:55:52.884Z,15.9
2022-10-16T23:00:59.128Z,15.9
2022-10-16T23:06:05.316Z,15.9
2022-10-16T23:11:11.522Z,16.0
2022-10-16T23:16:16.761Z,16.0
2022-10-16T23:21:22.959Z,16.0
2022-10-16T23:26:29.191Z,16.0
2022-10-16T23:31:35.376Z,16.0
2022-10-16T23:36:41.588Z,16.0
2022-10-16T23:41:47.806Z,16.0
2022-10-16T23:46:54.014Z,16.0
2022-10-16T23:52:00.220Z,16.0
2022-10-16T23:57:06.426Z,16.0
